createdAt,value
2023-01-30T00:01:00.893Z,97529.06
2023-01-30T00:03:27.414Z,97525.84
2023-01-30T00:05:53.966Z,97533.75
2023-01-30T00:08:20.410Z,97534.19
2023-01-30T00:10:47.148Z,97525.69
2023-01-30T00:13:14.694Z,97537.94
2023-01-30T00:15:41.492Z,97529.56
2023-01-30T00:18:07.951Z,97540.53
2023-01-30T00:20:34.614Z,97524.34
2023-01-30T00:23:01.673Z,97529.22
2023-01-30T00:25:28.438Z,97539.22
2023-01-30T00:27:55.131Z,97530.47
2023-01-30T00:30:22.335Z,97520.97
2023-01-30T00:32:48.855Z,97520.91
2023-01-30T00:35:15.522Z,97513.91
2023-01-30T00:37:41.974Z,97514.53
2023-01-30T00:40:08.817Z,97511.03
2023-01-30T00:42:53.970Z,97512.63
2023-01-30T00:45:39.238Z,97506.31
2023-01-30T00:48:07.715Z,97499.59
2023-01-30T00:50:42.644Z,97497.56
2023-01-30T00:53:11.882Z,97500.75
2023-01-30T00:55:38.820Z,97497.56
2023-01-30T00:58:05.361Z,97513.22
2023-01-30T01:00:32.147Z,97498.50
2023-01-30T01:02:58.714Z,97497.06
2023-01-30T01:05:25.297Z,97509.94
2023-01-30T01:07:52.816Z,97505.41
2023-01-30T01:10:19.323Z,97509.25
2023-01-30T01:12:46.152Z,97504.19
2023-01-30T01:15:12.824Z,97489.44
2023-01-30T01:17:39.875Z,97474.81
2023-01-30T01:20:06.783Z,97470.38
2023-01-30T01:22:33.253Z,97453.16
2023-01-30T01:24:59.800Z,97442.84
2023-01-30T01:27:26.306Z,97444.09
2023-01-30T01:29:52.883Z,97452.94
2023-01-30T01:32:20.270Z,97450.72
2023-01-30T01:34:46.748Z,97426.16
2023-01-30T01:37:13.298Z,97425.63
2023-01-30T01:39:58.436Z,97422.63
2023-01-30T01:42:26.956Z,97411.38
2023-01-30T01:45:13.181Z,97404.19
2023-01-30T01:47:40.784Z,97401.59
2023-01-30T01:50:09.479Z,97401.59
2023-01-30T01:52:35.951Z,97385.72
2023-01-30T01:55:02.897Z,97383.31
2023-01-30T01:57:31.337Z,97377.06
2023-01-30T02:00:11.589Z,97357.63
2023-01-30T02:02:42.343Z,97349.41
2023-01-30T02:05:11.276Z,97358.06
2023-01-30T02:07:38.515Z,97350.59
2023-01-30T02:10:05.591Z,97355.34
2023-01-30T02:12:32.360Z,97364.03
2023-01-30T02:14:58.907Z,97376.22
2023-01-30T02:17:25.457Z,97371.03
2023-01-30T02:19:54.949Z,97337.19
2023-01-30T02:22:27.437Z,97348.13
2023-01-30T02:24:56.936Z,97337.81
2023-01-30T02:27:42.128Z,97332.84
2023-01-30T02:30:17.707Z,97324.16
2023-01-30T02:32:44.127Z,97336.34
2023-01-30T02:35:17.900Z,97358.00
2023-01-30T02:37:44.632Z,97334.34
2023-01-30T02:40:11.124Z,97337.91
2023-01-30T02:42:37.951Z,97343.16
2023-01-30T02:45:24.110Z,97340.88
2023-01-30T02:47:53.746Z,97348.91
2023-01-30T02:50:25.181Z,97362.31
2023-01-30T02:52:53.298Z,97356.19
2023-01-30T02:55:24.085Z,97350.34
2023-01-30T02:57:51.212Z,97354.94
2023-01-30T03:00:22.527Z,97359.78
2023-01-30T03:03:07.353Z,97346.41
2023-01-30T03:05:46.274Z,97330.06
2023-01-30T03:08:15.826Z,97311.69
2023-01-30T03:10:50.576Z,97318.31
2023-01-30T03:13:26.217Z,97308.16
2023-01-30T03:15:58.828Z,97302.56
2023-01-30T03:18:25.317Z,97305.63
2023-01-30T03:20:52.127Z,97302.56
2023-01-30T03:23:18.863Z,97298.63
2023-01-30T03:25:45.427Z,97280.66
2023-01-30T03:28:12.041Z,97271.44
2023-01-30T03:30:38.659Z,97254.78
2023-01-30T03:33:08.904Z,97268.34
2023-01-30T03:35:37.057Z,97264.22
2023-01-30T03:38:03.657Z,97248.41
2023-01-30T03:40:30.181Z,97250.31
2023-01-30T03:42:57.890Z,97241.16
2023-01-30T03:45:24.506Z,97249.81
2023-01-30T03:47:51.977Z,97262.38
2023-01-30T03:50:18.495Z,97281.94
2023-01-30T03:52:45.757Z,97279.09
2023-01-30T03:55:16.101Z,97280.28
2023-01-30T03:57:43.124Z,97291.66
2023-01-30T04:00:10.237Z,97278.38
2023-01-30T04:02:48.979Z,97277.44
2023-01-30T04:05:17.822Z,97265.09
2023-01-30T04:07:50.394Z,97248.19
2023-01-30T04:10:18.502Z,97233.19
2023-01-30T04:12:44.962Z,97241.88
2023-01-30T04:15:11.577Z,97243.06
2023-01-30T04:17:48.678Z,97218.16
2023-01-30T04:20:30.400Z,97211.63
2023-01-30T04:22:57.584Z,97202.69
2023-01-30T04:25:26.072Z,97193.06
2023-01-30T04:27:52.792Z,97198.25
2023-01-30T04:30:23.881Z,97202.94
2023-01-30T04:32:55.030Z,97206.56
2023-01-30T04:35:21.936Z,97202.13
2023-01-30T04:37:48.466Z,97198.94
2023-01-30T04:40:18.938Z,97202.94
2023-01-30T04:42:45.485Z,97195.53
2023-01-30T04:45:30.509Z,97193.53
2023-01-30T04:47:57.172Z,97171.69
2023-01-30T04:50:23.837Z,97190.84
2023-01-30T04:52:50.409Z,97182.75
2023-01-30T04:55:17.597Z,97171.47
2023-01-30T04:57:44.226Z,97165.13
2023-01-30T05:00:11.414Z,97171.69
2023-01-30T05:02:43.555Z,97167.47
2023-01-30T05:05:10.093Z,97174.75
2023-01-30T05:07:36.629Z,97179.22
2023-01-30T05:10:03.383Z,97167.59
2023-01-30T05:12:30.697Z,97169.25
2023-01-30T05:14:57.212Z,97167.72
2023-01-30T05:17:23.798Z,97178.28
2023-01-30T05:19:50.408Z,97168.88
2023-01-30T05:22:16.856Z,97172.16
2023-01-30T05:24:43.669Z,97164.56
2023-01-30T05:27:10.106Z,97157.25
2023-01-30T05:29:36.571Z,97164.75
2023-01-30T05:32:03.835Z,97159.72
2023-01-30T05:34:30.391Z,97156.19
2023-01-30T05:36:56.846Z,97155.00
2023-01-30T05:39:23.423Z,97155.25
2023-01-30T05:41:49.908Z,97157.94
2023-01-30T05:44:16.405Z,97166.88
2023-01-30T05:46:43.106Z,97162.41
2023-01-30T05:49:09.622Z,97160.53
2023-01-30T05:51:36.204Z,97171.81
2023-01-30T05:54:02.677Z,97169.13
2023-01-30T05:56:33.153Z,97175.94
2023-01-30T05:59:00.001Z,97156.03
2023-01-30T06:01:26.525Z,97152.19
2023-01-30T06:03:53.254Z,97154.75
2023-01-30T06:06:19.756Z,97152.31
2023-01-30T06:08:46.388Z,97139.97
2023-01-30T06:11:16.586Z,97147.00
2023-01-30T06:13:43.317Z,97157.34
2023-01-30T06:16:12.024Z,97162.06
2023-01-30T06:18:38.610Z,97151.25
2023-01-30T06:21:05.117Z,97128.88
2023-01-30T06:23:31.648Z,97155.22
2023-01-30T06:25:58.189Z,97153.47
2023-01-30T06:28:24.870Z,97136.16
2023-01-30T06:30:51.623Z,97142.03
2023-01-30T06:33:18.204Z,97150.97
2023-01-30T06:35:45.021Z,97146.63
2023-01-30T06:38:11.725Z,97140.25
2023-01-30T06:40:38.437Z,97173.53
2023-01-30T06:43:05.763Z,97173.19
2023-01-30T06:45:32.976Z,97172.09
2023-01-30T06:47:59.948Z,97144.13
2023-01-30T06:50:27.078Z,97166.34
2023-01-30T06:52:53.813Z,97177.00
2023-01-30T06:55:21.653Z,97174.41
2023-01-30T06:57:48.172Z,97167.44
2023-01-30T07:00:18.188Z,97187.59
2023-01-30T07:02:44.949Z,97172.25
2023-01-30T07:05:11.541Z,97173.78
2023-01-30T07:07:38.342Z,97158.25
2023-01-30T07:10:08.645Z,97182.84
2023-01-30T07:12:36.369Z,97195.41
2023-01-30T07:15:03.340Z,97193.50
2023-01-30T07:17:29.975Z,97182.00
2023-01-30T07:19:56.667Z,97175.53
2023-01-30T07:22:23.264Z,97196.91
2023-01-30T07:24:49.833Z,97190.41
2023-01-30T07:27:16.535Z,97176.25
2023-01-30T07:29:46.299Z,97189.91
2023-01-30T07:32:14.917Z,97194.53
2023-01-30T07:34:41.862Z,97181.19
2023-01-30T07:37:08.421Z,97183.63
2023-01-30T07:39:35.396Z,97187.88
2023-01-30T07:42:02.033Z,97190.47
2023-01-30T07:44:28.469Z,97175.06
2023-01-30T07:46:55.018Z,97161.38
2023-01-30T07:49:21.506Z,97181.25
2023-01-30T07:51:47.964Z,97160.16
2023-01-30T07:54:14.527Z,97163.00
2023-01-30T07:56:41.082Z,97161.59
2023-01-30T07:59:07.538Z,97168.88
2023-01-30T08:01:34.144Z,97167.94
2023-01-30T08:04:00.758Z,97149.78
2023-01-30T08:06:27.231Z,97154.03
2023-01-30T08:08:53.696Z,97152.38
2023-01-30T08:11:20.196Z,97146.94
2023-01-30T08:13:48.342Z,97149.31
2023-01-30T08:16:14.927Z,97148.53
2023-01-30T08:18:41.491Z,97144.88
2023-01-30T08:21:08.095Z,97145.69
2023-01-30T08:23:34.669Z,97162.53
2023-01-30T08:26:01.796Z,97163.63
2023-01-30T08:28:28.888Z,97163.06
2023-01-30T08:30:55.666Z,97151.00
2023-01-30T08:33:22.607Z,97197.06
2023-01-30T08:35:49.339Z,97177.41
2023-01-30T08:38:16.415Z,97171.66
2023-01-30T08:40:43.000Z,97170.19
2023-01-30T08:43:09.477Z,97208.81
2023-01-30T08:45:35.966Z,97211.66
2023-01-30T08:48:02.996Z,97207.78
2023-01-30T08:50:29.481Z,97208.06
2023-01-30T08:52:56.016Z,97199.16
2023-01-30T08:55:22.510Z,97193.56
2023-01-30T08:57:49.076Z,97222.16
2023-01-30T09:00:16.167Z,97208.47
2023-01-30T09:02:42.713Z,97221.00
2023-01-30T09:05:11.075Z,97208.47
2023-01-30T09:07:37.627Z,97230.38
2023-01-30T09:10:04.491Z,97232.72
2023-01-30T09:12:31.095Z,97233.28
2023-01-30T09:14:58.499Z,97235.25
2023-01-30T09:17:25.057Z,97235.50
2023-01-30T09:19:51.657Z,97223.75
2023-01-30T09:22:18.302Z,97219.19
2023-01-30T09:24:44.776Z,97208.19
2023-01-30T09:27:11.250Z,97198.44
2023-01-30T09:29:37.745Z,97194.91
2023-01-30T09:32:04.357Z,97190.38
2023-01-30T09:34:30.812Z,97186.81
2023-01-30T09:37:00.420Z,97180.03
2023-01-30T09:39:27.497Z,97166.06
2023-01-30T09:42:01.193Z,97169.84
2023-01-30T09:44:40.469Z,97154.31
2023-01-30T09:47:13.660Z,97141.78
2023-01-30T09:49:59.009Z,97142.28
2023-01-30T09:52:46.810Z,97132.00
2023-01-30T09:55:17.374Z,97127.47
2023-01-30T09:57:44.013Z,97134.91
2023-01-30T10:00:29.133Z,97137.38
2023-01-30T10:03:01.410Z,97139.69
2023-01-30T10:05:31.272Z,97146.13
2023-01-30T10:08:01.597Z,97138.16
2023-01-30T10:10:37.228Z,97125.19
2023-01-30T10:13:06.697Z,97099.53
2023-01-30T10:15:49.619Z,97121.22
2023-01-30T10:18:25.139Z,97072.53
2023-01-30T10:20:57.866Z,97067.63
2023-01-30T10:23:36.618Z,97058.78
2023-01-30T10:26:10.358Z,97051.66
2023-01-30T10:28:52.468Z,97060.28
2023-01-30T10:31:26.619Z,97056.22
2023-01-30T10:33:58.313Z,97044.28
2023-01-30T10:36:51.015Z,97046.22
2023-01-30T10:39:54.912Z,97035.69
2023-01-30T10:42:29.189Z,97041.44
2023-01-30T10:44:58.731Z,97025.03
2023-01-30T10:47:47.022Z,97017.81
2023-01-30T10:50:15.734Z,97012.91
2023-01-30T10:53:01.170Z,96999.63
2023-01-30T10:55:37.084Z,97004.03
2023-01-30T10:58:06.816Z,97001.97
2023-01-30T11:00:36.259Z,96993.91
2023-01-30T11:03:10.574Z,96997.31
2023-01-30T11:05:46.910Z,96997.31
2023-01-30T11:08:19.879Z,96991.59
2023-01-30T11:10:46.316Z,96986.41
2023-01-30T11:13:20.072Z,96988.47
2023-01-30T11:15:47.904Z,96980.66
2023-01-30T11:19:05.227Z,96981.63
2023-01-30T11:21:14.685Z,96974.81
2023-01-30T11:23:41.905Z,96972.06
2023-01-30T11:26:12.305Z,96975.75
2023-01-30T11:28:42.724Z,96989.56
2023-01-30T11:31:17.417Z,96991.44
2023-01-30T11:33:44.997Z,96988.72
2023-01-30T11:36:28.094Z,96978.47
2023-01-30T11:38:56.495Z,96987.91
2023-01-30T11:41:23.091Z,97000.72
2023-01-30T11:43:49.667Z,97015.47
2023-01-30T11:46:17.215Z,97016.31
2023-01-30T11:49:03.689Z,97015.38
2023-01-30T11:51:34.166Z,97032.03
2023-01-30T11:54:01.228Z,97027.25
2023-01-30T11:56:38.308Z,97032.16
2023-01-30T11:59:28.148Z,97030.47
2023-01-30T12:02:23.810Z,97035.69
2023-01-30T12:04:53.804Z,97019.31
2023-01-30T12:07:24.641Z,97032.84
2023-01-30T12:09:51.703Z,97022.06
2023-01-30T12:12:24.334Z,97033.25
2023-01-30T12:14:50.820Z,97041.84
2023-01-30T12:17:21.648Z,97053.72
2023-01-30T12:20:00.481Z,97063.16
2023-01-30T12:22:41.711Z,97068.22
2023-01-30T12:25:11.461Z,97076.41
2023-01-30T12:27:44.812Z,97076.69
2023-01-30T12:30:29.858Z,97073.13
2023-01-30T12:32:57.669Z,97082.03
2023-01-30T12:35:25.702Z,97077.38
2023-01-30T12:38:04.076Z,97076.56
2023-01-30T12:40:53.688Z,97078.59
2023-01-30T12:43:20.119Z,97087.78
2023-01-30T12:45:46.724Z,97100.91
2023-01-30T12:48:13.132Z,97089.28
2023-01-30T12:50:52.710Z,97107.31
2023-01-30T12:53:32.978Z,97102.78
2023-01-30T12:56:11.729Z,97098.97
2023-01-30T12:58:39.570Z,97101.59
2023-01-30T13:01:06.194Z,97092.00
2023-01-30T13:04:05.166Z,97097.72
2023-01-30T13:06:34.672Z,97089.53
2023-01-30T13:09:05.301Z,97097.59
2023-01-30T13:11:31.762Z,97100.88
2023-01-30T13:14:01.273Z,97105.94
2023-01-30T13:16:30.168Z,97111.72
2023-01-30T13:18:57.998Z,97108.81
2023-01-30T13:21:27.197Z,97111.41
2023-01-30T13:23:53.648Z,97112.94
2023-01-30T13:26:21.331Z,97110.84
2023-01-30T13:29:10.916Z,97126.31
2023-01-30T13:31:38.886Z,97128.06
2023-01-30T13:34:06.502Z,97131.34
2023-01-30T13:36:36.989Z,97140.69
2023-01-30T13:39:09.336Z,97142.84
2023-01-30T13:41:36.346Z,97150.50
2023-01-30T13:44:03.912Z,97146.69
2023-01-30T13:46:30.576Z,97129.88
2023-01-30T13:49:00.162Z,97130.81
2023-01-30T13:51:26.723Z,97129.88
2023-01-30T13:54:02.796Z,97130.84
2023-01-30T13:56:47.905Z,97120.72
2023-01-30T13:59:16.628Z,97120.88
2023-01-30T14:02:04.851Z,97116.63
2023-01-30T14:04:40.416Z,97113.88
2023-01-30T14:07:10.152Z,97111.41
2023-01-30T14:09:37.336Z,97103.63
2023-01-30T14:12:04.147Z,97092.28
2023-01-30T14:14:36.526Z,97086.13
2023-01-30T14:17:15.710Z,97089.56
2023-01-30T14:19:57.158Z,97079.19
2023-01-30T14:22:50.605Z,97090.53
2023-01-30T14:25:23.250Z,97095.81
2023-01-30T14:27:52.730Z,97106.78
2023-01-30T14:30:31.372Z,97098.56
2023-01-30T14:32:58.543Z,97106.94
2023-01-30T14:35:25.596Z,97104.31
2023-01-30T14:38:03.715Z,97093.38
2023-01-30T14:40:31.147Z,97092.56
2023-01-30T14:43:13.094Z,97094.75
2023-01-30T14:45:49.065Z,97099.91
2023-01-30T14:48:34.297Z,97106.78
2023-01-30T14:51:10.314Z,97103.63
2023-01-30T14:54:03.109Z,97095.66
2023-01-30T14:56:43.434Z,97090.63
2023-01-30T14:59:30.134Z,97068.47
2023-01-30T15:02:17.748Z,97064.09
2023-01-30T15:04:50.096Z,97064.09
2023-01-30T15:07:20.621Z,97059.22
2023-01-30T15:09:51.484Z,97050.03
2023-01-30T15:12:28.535Z,97046.66
2023-01-30T15:14:59.163Z,97041.72
2023-01-30T15:17:40.137Z,97026.53
2023-01-30T15:20:07.100Z,97037.06
2023-01-30T15:22:36.440Z,97050.72
2023-01-30T15:25:08.163Z,97046.63
2023-01-30T15:27:51.104Z,97054.72
2023-01-30T15:30:39.364Z,97070.53
2023-01-30T15:33:30.948Z,97078.06
2023-01-30T15:35:58.700Z,97079.84
2023-01-30T15:38:32.568Z,97087.34
2023-01-30T15:41:02.763Z,97081.31
2023-01-30T15:43:35.388Z,97083.78
2023-01-30T15:46:11.132Z,97080.66
2023-01-30T15:48:40.395Z,97074.47
2023-01-30T15:51:09.094Z,97079.91
2023-01-30T15:53:36.381Z,97085.28
2023-01-30T15:56:03.451Z,97077.06
2023-01-30T15:58:29.951Z,97079.38
2023-01-30T16:00:57.532Z,97079.91
2023-01-30T16:03:25.043Z,97081.56
2023-01-30T16:05:55.448Z,97091.13
2023-01-30T16:08:22.934Z,97075.00
2023-01-30T16:10:52.557Z,97074.47
2023-01-30T16:13:21.035Z,97079.66
2023-01-30T16:15:50.357Z,97083.47
2023-01-30T16:18:27.956Z,97079.81
2023-01-30T16:24:02.822Z,97085.66
2023-01-30T16:26:29.325Z,97087.03
2023-01-30T16:29:00.203Z,97078.00
2023-01-30T16:31:27.468Z,97074.47
2023-01-30T16:33:54.155Z,97080.88
2023-01-30T16:36:20.596Z,97080.34
2023-01-30T16:38:47.574Z,97084.31
2023-01-30T16:41:33.456Z,97083.75
2023-01-30T16:44:09.224Z,97082.94
2023-01-30T16:46:41.612Z,97084.56
2023-01-30T16:49:18.607Z,97082.94
2023-01-30T16:51:45.092Z,97078.28
2023-01-30T16:54:19.437Z,97080.75
2023-01-30T16:56:47.568Z,97083.47
2023-01-30T16:59:20.841Z,97078.69
2023-01-30T17:01:47.742Z,97080.50
2023-01-30T17:04:16.244Z,97087.03
2023-01-30T17:06:43.346Z,97087.72
2023-01-30T17:09:31.419Z,97079.25
2023-01-30T17:11:58.089Z,97082.88
2023-01-30T17:14:30.968Z,97097.47
2023-01-30T17:17:07.692Z,97096.50
2023-01-30T17:19:34.477Z,97095.59
2023-01-30T17:22:02.300Z,97098.47
2023-01-30T17:24:29.079Z,97112.41
2023-01-30T17:27:06.631Z,97112.03
2023-01-30T17:29:42.757Z,97105.59
2023-01-30T17:32:16.342Z,97102.06
2023-01-30T17:34:58.634Z,97105.06
2023-01-30T17:37:32.372Z,97102.06
2023-01-30T17:40:10.805Z,97094.63
2023-01-30T17:42:46.245Z,97093.53
2023-01-30T17:45:18.722Z,97091.78
2023-01-30T17:47:48.774Z,97083.31
2023-01-30T17:50:23.156Z,97096.97
2023-01-30T17:53:01.519Z,97102.06
2023-01-30T17:55:38.603Z,97109.72
2023-01-30T17:58:08.812Z,97116.31
2023-01-30T18:00:45.126Z,97110.69
2023-01-30T18:03:20.741Z,97111.66
2023-01-30T18:05:49.065Z,97136.81
2023-01-30T18:08:25.724Z,97134.25
2023-01-30T18:10:56.805Z,97148.59
2023-01-30T18:13:27.105Z,97158.97
2023-01-30T18:15:55.034Z,97161.16
2023-01-30T18:18:32.718Z,97169.94
2023-01-30T18:21:01.814Z,97171.03
2023-01-30T18:23:33.471Z,97186.63
2023-01-30T18:26:04.003Z,97182.38
2023-01-30T18:28:33.822Z,97188.25
2023-01-30T18:31:10.636Z,97203.97
2023-01-30T18:33:37.943Z,97207.28
2023-01-30T18:36:09.995Z,97206.59
2023-01-30T18:38:41.954Z,97207.16
2023-01-30T18:41:20.569Z,97214.13
2023-01-30T18:46:30.607Z,97230.41
2023-01-30T18:49:00.664Z,97241.91
2023-01-30T18:51:41.326Z,97232.31
2023-01-30T18:54:09.309Z,97232.59
2023-01-30T18:56:38.839Z,97238.63
2023-01-30T18:59:08.850Z,97238.88
2023-01-30T19:01:38.107Z,97248.63
2023-01-30T19:04:06.229Z,97255.69
2023-01-30T19:06:35.288Z,97249.56
2023-01-30T19:09:12.466Z,97256.09
2023-01-30T19:12:01.887Z,97265.97
2023-01-30T19:14:30.795Z,97262.44
2023-01-30T19:16:57.636Z,97255.56
2023-01-30T19:19:27.087Z,97262.53
2023-01-30T19:21:56.758Z,97267.88
2023-01-30T19:24:36.015Z,97292.66
2023-01-30T19:27:05.852Z,97286.63
2023-01-30T19:29:35.746Z,97292.81
2023-01-30T19:32:10.555Z,97291.56
2023-01-30T19:34:49.850Z,97299.88
2023-01-30T19:37:16.770Z,97308.41
2023-01-30T19:39:43.455Z,97308.81
2023-01-30T19:42:18.928Z,97313.03
2023-01-30T19:44:51.275Z,97310.88
2023-01-30T19:47:23.140Z,97320.16
2023-01-30T19:50:00.159Z,97322.31
2023-01-30T19:52:30.102Z,97329.75
2023-01-30T19:54:59.829Z,97335.47
2023-01-30T19:57:45.681Z,97345.63
2023-01-30T20:00:12.863Z,97335.47
2023-01-30T20:02:39.671Z,97333.44
2023-01-30T20:05:09.872Z,97342.88
2023-01-30T20:07:39.892Z,97353.81
2023-01-30T20:10:14.918Z,97356.66
2023-01-30T20:12:41.674Z,97356.38
2023-01-30T20:17:52.634Z,97359.00
2023-01-30T20:20:24.846Z,97357.91
2023-01-30T20:22:56.733Z,97370.75
2023-01-30T20:25:26.092Z,97385.25
2023-01-30T20:27:52.771Z,97398.66
2023-01-30T20:30:19.853Z,97400.50
2023-01-30T20:32:47.998Z,97414.16
2023-01-30T20:35:15.763Z,97415.50
2023-01-30T20:37:42.430Z,97410.75
2023-01-30T20:40:09.375Z,97427.03
2023-01-30T20:42:41.924Z,97441.78
2023-01-30T20:45:08.889Z,97445.44
2023-01-30T20:47:42.540Z,97459.59
2023-01-30T20:50:18.878Z,97457.66
2023-01-30T20:55:38.355Z,97461.69
2023-01-30T20:58:06.413Z,97473.31
2023-01-30T21:00:42.862Z,97471.53
2023-01-30T21:03:16.893Z,97470.34
2023-01-30T21:08:30.810Z,97476.03
2023-01-30T21:11:16.900Z,97486.44
2023-01-30T21:13:49.110Z,97487.84
2023-01-30T21:16:29.871Z,97497.63
2023-01-30T21:19:01.851Z,97504.81
2023-01-30T21:21:40.290Z,97499.81
2023-01-30T21:24:15.303Z,97503.59
2023-01-30T21:26:46.472Z,97511.94
2023-01-30T21:29:18.961Z,97521.63
2023-01-30T21:31:52.225Z,97519.84
2023-01-30T21:34:22.442Z,97523.34
2023-01-30T21:37:08.988Z,97520.81
2023-01-30T21:39:56.311Z,97539.44
2023-01-30T21:42:46.140Z,97554.97
2023-01-30T21:45:12.980Z,97576.09
2023-01-30T21:47:42.042Z,97580.56
2023-01-30T21:50:09.153Z,97591.91
2023-01-30T21:52:49.266Z,97601.59
2023-01-30T21:55:19.228Z,97616.91
2023-01-30T21:57:54.623Z,97613.31
2023-01-30T22:00:41.560Z,97608.81
2023-01-30T22:03:08.276Z,97638.28
2023-01-30T22:05:38.883Z,97650.31
2023-01-30T22:08:06.619Z,97659.78
2023-01-30T22:10:36.338Z,97659.81
2023-01-30T22:13:03.191Z,97654.25
2023-01-30T22:15:29.993Z,97641.84
2023-01-30T22:17:56.564Z,97647.78
2023-01-30T22:20:23.161Z,97659.50
2023-01-30T22:22:49.853Z,97674.38
2023-01-30T22:25:16.537Z,97694.59
2023-01-30T22:27:43.221Z,97712.66
2023-01-30T22:30:10.259Z,97715.47
2023-01-30T22:32:37.385Z,97715.59
2023-01-30T22:35:04.264Z,97714.97
2023-01-30T22:37:30.976Z,97714.28
2023-01-30T22:39:57.783Z,97731.75
2023-01-30T22:42:24.505Z,97733.31
2023-01-30T22:44:51.181Z,97736.59
2023-01-30T22:47:20.624Z,97734.34
2023-01-30T22:49:47.577Z,97731.50
2023-01-30T22:52:14.378Z,97727.66
2023-01-30T22:54:43.438Z,97747.59
2023-01-30T22:57:10.243Z,97760.84
2023-01-30T22:59:36.956Z,97758.47
2023-01-30T23:02:04.265Z,97767.22
2023-01-30T23:04:31.145Z,97766.50
2023-01-30T23:07:01.615Z,97758.34
2023-01-30T23:09:30.716Z,97784.66
2023-01-30T23:12:16.256Z,97782.88
2023-01-30T23:14:43.148Z,97785.38
2023-01-30T23:17:28.620Z,97789.16
2023-01-30T23:19:55.371Z,97770.38
2023-01-30T23:22:22.059Z,97763.63
2023-01-30T23:24:51.417Z,97765.25
2023-01-30T23:27:21.427Z,97769.03
2023-01-30T23:29:48.141Z,97751.69
2023-01-30T23:32:15.257Z,97757.25
2023-01-30T23:34:42.092Z,97747.78
2023-01-30T23:37:08.782Z,97753.72
2023-01-30T23:39:35.545Z,97754.56
2023-01-30T23:42:02.366Z,97755.16
2023-01-30T23:44:29.112Z,97763.63
2023-01-30T23:46:55.714Z,97750.31
2023-01-30T23:49:22.552Z,97745.00
2023-01-30T23:51:49.239Z,97744.06
2023-01-30T23:54:15.903Z,97747.84
2023-01-30T23:56:43.649Z,97743.72
2023-01-30T23:59:11.013Z,97747.50
